FW291 KNUW-KNUW
Flight info
| Callsign | FW291 |
|---|---|
| Flight time | 1h 2m |
| Altitude | 9000 |
| Route | VFR |
| Aircraft | H60/L-VD/C |
Departure
| Time | 2026-05-04 02:47 |
|---|---|
| Airport | Whidbey Island Naval Air Station (Ault Field) (KNUW) |
Arrival
| Time | 2026-05-04 03:49 |
|---|---|
| Airport | Whidbey Island Naval Air Station (Ault Field) (KNUW) |
| Time | Latitude | Longitude | Altitude | Speed | Heading |
|---|---|---|---|---|---|
| 2026-05-04 02:29 | 48.34288 | -122.66481 | 32 ft | 0 kts | 146° |
| 2026-05-04 02:44 | 48.34282 | -122.66475 | 32 ft | 4 kts | 146° |
| 2026-05-04 02:44 | 48.34241 | -122.66424 | 32 ft | 11 kts | 133° |
| 2026-05-04 02:44 | 48.34201 | -122.66331 | 32 ft | 10 kts | 111° |
| 2026-05-04 02:44 | 48.34189 | -122.66227 | 33 ft | 10 kts | 89° |
| 2026-05-04 02:45 | 48.34226 | -122.66147 | 33 ft | 11 kts | 4° |
| 2026-05-04 02:45 | 48.34288 | -122.66193 | 37 ft | 12 kts | 325° |
| 2026-05-04 02:45 | 48.34457 | -122.66365 | 71 ft | 47 kts | 324° |
| 2026-05-04 02:45 | 48.34785 | -122.66813 | 111 ft | 76 kts | 292° |
| 2026-05-04 02:46 | 48.34969 | -122.67649 | 135 ft | 93 kts | 292° |
| 2026-05-04 02:46 | 48.35245 | -122.68595 | 74 ft | 103 kts | 296° |
| 2026-05-04 02:46 | 48.35593 | -122.69639 | 461 ft | 112 kts | 298° |
| 2026-05-04 02:46 | 48.35956 | -122.70686 | 358 ft | 114 kts | 298° |
| 2026-05-04 02:47 | 48.36350 | -122.71783 | 861 ft | 129 kts | 301° |
| 2026-05-04 02:47 | 48.36801 | -122.72912 | 935 ft | 129 kts | 303° |
| 2026-05-04 02:47 | 48.37250 | -122.74045 | 998 ft | 128 kts | 303° |
| 2026-05-04 02:47 | 48.37697 | -122.75178 | 1011 ft | 126 kts | 303° |
| 2026-05-04 02:48 | 48.38146 | -122.76316 | 1012 ft | 126 kts | 303° |
| 2026-05-04 02:48 | 48.38598 | -122.77430 | 1014 ft | 126 kts | 303° |
| 2026-05-04 02:48 | 48.39054 | -122.78557 | 1014 ft | 126 kts | 303° |
| 2026-05-04 02:48 | 48.39511 | -122.79684 | 1016 ft | 126 kts | 303° |
| 2026-05-04 02:49 | 48.39968 | -122.80818 | 1015 ft | 127 kts | 303° |
| 2026-05-04 02:49 | 48.40426 | -122.81956 | 1001 ft | 127 kts | 303° |
| 2026-05-04 02:49 | 48.40888 | -122.83093 | 1003 ft | 127 kts | 303° |
| 2026-05-04 02:49 | 48.41349 | -122.84228 | 1002 ft | 127 kts | 303° |
| 2026-05-04 02:50 | 48.41803 | -122.85362 | 1000 ft | 127 kts | 303° |
| 2026-05-04 02:50 | 48.42265 | -122.86496 | 1002 ft | 127 kts | 303° |
| 2026-05-04 02:50 | 48.42730 | -122.87631 | 1001 ft | 127 kts | 303° |
| 2026-05-04 02:50 | 48.43183 | -122.88753 | 1002 ft | 126 kts | 303° |
| 2026-05-04 02:51 | 48.43644 | -122.89898 | 1002 ft | 126 kts | 303° |
| 2026-05-04 02:51 | 48.44097 | -122.91015 | 1001 ft | 127 kts | 303° |
| 2026-05-04 02:51 | 48.44559 | -122.92149 | 1001 ft | 127 kts | 303° |
| 2026-05-04 02:51 | 48.45022 | -122.93284 | 1013 ft | 127 kts | 303° |
| 2026-05-04 02:52 | 48.45480 | -122.94415 | 1012 ft | 127 kts | 303° |
| 2026-05-04 02:52 | 48.46016 | -122.95467 | 1012 ft | 126 kts | 314° |
| 2026-05-04 02:52 | 48.46695 | -122.96300 | 1010 ft | 127 kts | 329° |
| 2026-05-04 02:52 | 48.47455 | -122.96934 | 1012 ft | 124 kts | 332° |
| 2026-05-04 02:53 | 48.48213 | -122.97564 | 1012 ft | 125 kts | 332° |
| 2026-05-04 02:53 | 48.48972 | -122.98203 | 1010 ft | 125 kts | 332° |
| 2026-05-04 02:53 | 48.49724 | -122.98833 | 1010 ft | 125 kts | 332° |
| 2026-05-04 02:53 | 48.50487 | -122.99474 | 1009 ft | 126 kts | 332° |
| 2026-05-04 02:54 | 48.51250 | -123.00119 | 1012 ft | 126 kts | 332° |
| 2026-05-04 02:54 | 48.52018 | -123.00758 | 1018 ft | 126 kts | 332° |
| 2026-05-04 02:54 | 48.52769 | -123.01439 | 1007 ft | 128 kts | 323° |
| 2026-05-04 02:54 | 48.53220 | -123.02614 | 1006 ft | 135 kts | 287° |
| 2026-05-04 02:55 | 48.52315 | -123.04475 | 838 ft | 134 kts | 116° |
| 2026-05-04 02:55 | 48.52173 | -123.03260 | 517 ft | 99 kts | 85° |
| 2026-05-04 02:55 | 48.52288 | -123.02428 | 401 ft | 62 kts | 21° |
| 2026-05-04 02:56 | 48.52556 | -123.02360 | 217 ft | 38 kts | 0° |
| 2026-05-04 02:56 | 48.52760 | -123.02369 | 174 ft | 32 kts | 359° |
| 2026-05-04 02:56 | 48.52875 | -123.02998 | 526 ft | 110 kts | 271° |
| 2026-05-04 02:56 | 48.52885 | -123.04292 | 741 ft | 128 kts | 273° |
| 2026-05-04 02:57 | 48.52888 | -123.05508 | 1503 ft | 110 kts | 279° |
| 2026-05-04 02:57 | 48.52870 | -123.06746 | 1528 ft | 119 kts | 274° |
| 2026-05-04 02:57 | 48.52854 | -123.07977 | 1739 ft | 119 kts | 274° |
| 2026-05-04 02:57 | 48.52836 | -123.09227 | 2381 ft | 117 kts | 274° |
| 2026-05-04 02:58 | 48.52831 | -123.10457 | 1617 ft | 114 kts | 276° |
| 2026-05-04 02:58 | 48.52853 | -123.11705 | 2052 ft | 118 kts | 276° |
| 2026-05-04 02:58 | 48.52888 | -123.12929 | 2226 ft | 116 kts | 277° |
| 2026-05-04 02:58 | 48.52936 | -123.14295 | 1276 ft | 154 kts | 277° |
| 2026-05-04 02:59 | 48.53010 | -123.15933 | 1275 ft | 154 kts | 277° |
| 2026-05-04 02:59 | 48.53150 | -123.17465 | 1473 ft | 146 kts | 287° |
| 2026-05-04 02:59 | 48.53577 | -123.18835 | 1642 ft | 143 kts | 305° |
| 2026-05-04 02:59 | 48.54161 | -123.20046 | 1810 ft | 142 kts | 308° |
| 2026-05-04 03:00 | 48.54733 | -123.21250 | 1985 ft | 141 kts | 308° |
| 2026-05-04 03:00 | 48.55330 | -123.22441 | 1606 ft | 138 kts | 322° |
| 2026-05-04 03:00 | 48.56171 | -123.22812 | 690 ft | 129 kts | 5° |
| 2026-05-04 03:00 | 48.56990 | -123.22590 | 546 ft | 114 kts | 13° |
| 2026-05-04 03:01 | 48.57481 | -123.21989 | 601 ft | 92 kts | 110° |
| 2026-05-04 03:01 | 48.57082 | -123.21661 | 196 ft | 44 kts | 207° |
| 2026-05-04 03:01 | 48.56963 | -123.21752 | 126 ft | 16 kts | 140° |
| 2026-05-04 03:01 | 48.56920 | -123.21725 | 119 ft | 1 kts | 154° |
| 2026-05-04 03:02 | 48.56885 | -123.21846 | 188 ft | 59 kts | 261° |
| 2026-05-04 03:02 | 48.57146 | -123.22709 | 501 ft | 105 kts | 295° |
| 2026-05-04 03:02 | 48.57496 | -123.23849 | 917 ft | 137 kts | 296° |
| 2026-05-04 03:02 | 48.57876 | -123.25208 | 1281 ft | 139 kts | 296° |
| 2026-05-04 03:03 | 48.58218 | -123.26543 | 2056 ft | 136 kts | 296° |
| 2026-05-04 03:03 | 48.58565 | -123.27887 | 1816 ft | 136 kts | 296° |
| 2026-05-04 03:03 | 48.58907 | -123.29230 | 1710 ft | 137 kts | 296° |
| 2026-05-04 03:03 | 48.59247 | -123.30567 | 1627 ft | 136 kts | 296° |
| 2026-05-04 03:04 | 48.59590 | -123.31904 | 1575 ft | 137 kts | 296° |
| 2026-05-04 03:04 | 48.59952 | -123.33231 | 1542 ft | 136 kts | 296° |
| 2026-05-04 03:04 | 48.60403 | -123.34424 | 1557 ft | 122 kts | 321° |
| 2026-05-04 03:04 | 48.61132 | -123.34474 | 1730 ft | 109 kts | 25° |
| 2026-05-04 03:05 | 48.61449 | -123.33420 | 1555 ft | 121 kts | 89° |
| 2026-05-04 03:05 | 48.60988 | -123.32479 | 1686 ft | 116 kts | 158° |
| 2026-05-04 03:05 | 48.60203 | -123.32525 | 1740 ft | 117 kts | 168° |
| 2026-05-04 03:05 | 48.59818 | -123.32119 | 1804 ft | 115 kts | 126° |
| 2026-05-04 03:06 | 48.59719 | -123.31824 | 1814 ft | 117 kts | 107° |
| 2026-05-04 03:06 | 48.59881 | -123.30609 | 1590 ft | 129 kts | 47° |
| 2026-05-04 03:06 | 48.60731 | -123.30042 | 881 ft | 146 kts | 350° |
| 2026-05-04 03:06 | 48.61367 | -123.31091 | 616 ft | 145 kts | 280° |
| 2026-05-04 03:07 | 48.61339 | -123.32647 | 413 ft | 148 kts | 265° |
| 2026-05-04 03:07 | 48.61250 | -123.34171 | 591 ft | 143 kts | 262° |
| 2026-05-04 03:07 | 48.61115 | -123.35625 | 864 ft | 136 kts | 259° |
| 2026-05-04 03:07 | 48.61050 | -123.37042 | 758 ft | 140 kts | 276° |
| 2026-05-04 03:08 | 48.61319 | -123.38446 | 778 ft | 136 kts | 295° |
| 2026-05-04 03:08 | 48.61700 | -123.39695 | 923 ft | 125 kts | 298° |
| 2026-05-04 03:08 | 48.62089 | -123.40810 | 871 ft | 115 kts | 314° |
| 2026-05-04 03:08 | 48.62735 | -123.41372 | 586 ft | 103 kts | 334° |
| 2026-05-04 03:09 | 48.63330 | -123.41777 | 449 ft | 86 kts | 331° |
| 2026-05-04 03:09 | 48.63859 | -123.42216 | 280 ft | 86 kts | 330° |
| 2026-05-04 03:09 | 48.64314 | -123.42592 | 147 ft | 64 kts | 332° |
| 2026-05-04 03:09 | 48.64692 | -123.42886 | 127 ft | 61 kts | 332° |
| 2026-05-04 03:10 | 48.64930 | -123.43249 | 91 ft | 43 kts | 282° |
| 2026-05-04 03:10 | 48.64972 | -123.43572 | 64 ft | 14 kts | 193° |
| 2026-05-04 03:10 | 48.64892 | -123.43604 | 50 ft | 1 kts | 271° |
| 2026-05-04 03:10 | 48.64892 | -123.43603 | 46 ft | 0 kts | 266° |
| 2026-05-04 03:11 | 48.64708 | -123.43593 | 160 ft | 60 kts | 159° |
| 2026-05-04 03:11 | 48.64308 | -123.43559 | 61 ft | 47 kts | 138° |
| 2026-05-04 03:11 | 48.64285 | -123.43551 | 73 ft | 41 kts | 121° |
| 2026-05-04 03:11 | 48.64209 | -123.43404 | 63 ft | 27 kts | 97° |
| 2026-05-04 03:12 | 48.64211 | -123.43242 | 60 ft | 22 kts | 82° |
| 2026-05-04 03:12 | 48.64240 | -123.43067 | 57 ft | 16 kts | 108° |
| 2026-05-04 03:12 | 48.64163 | -123.42880 | 59 ft | 13 kts | 161° |
| 2026-05-04 03:12 | 48.64121 | -123.42847 | 62 ft | 5 kts | 98° |
| 2026-05-04 03:13 | 48.64116 | -123.42843 | 52 ft | 0 kts | 98° |
| 2026-05-04 03:14 | 48.64099 | -123.42732 | 100 ft | 49 kts | 105° |
| 2026-05-04 03:14 | 48.63778 | -123.41911 | 352 ft | 112 kts | 118° |
| 2026-05-04 03:14 | 48.63736 | -123.40640 | 302 ft | 128 kts | 85° |
| 2026-05-04 03:15 | 48.63807 | -123.39268 | 310 ft | 132 kts | 86° |
| 2026-05-04 03:15 | 48.63859 | -123.37880 | 328 ft | 133 kts | 85° |
| 2026-05-04 03:15 | 48.63854 | -123.36506 | 182 ft | 122 kts | 99° |
| 2026-05-04 03:15 | 48.63630 | -123.35402 | 259 ft | 104 kts | 88° |
| 2026-05-04 03:16 | 48.63802 | -123.34535 | 89 ft | 69 kts | 24° |
| 2026-05-04 03:16 | 48.63973 | -123.34357 | 32 ft | 3 kts | 30° |
| 2026-05-04 03:16 | 48.63979 | -123.34334 | 34 ft | 3 kts | 37° |
| 2026-05-04 03:16 | 48.63986 | -123.34306 | 38 ft | 3 kts | 82° |
| 2026-05-04 03:17 | 48.63986 | -123.34296 | 46 ft | 3 kts | 131° |
| 2026-05-04 03:17 | 48.63987 | -123.34293 | 35 ft | 1 kts | 141° |
| 2026-05-04 03:17 | 48.63977 | -123.34296 | 29 ft | 2 kts | 159° |
| 2026-05-04 03:17 | 48.63995 | -123.34311 | 23 ft | 6 kts | 178° |
| 2026-05-04 03:18 | 48.63988 | -123.34305 | 27 ft | 2 kts | 127° |
| 2026-05-04 03:18 | 48.63978 | -123.34299 | 28 ft | 5 kts | 146° |
| 2026-05-04 03:18 | 48.63976 | -123.34298 | 29 ft | 1 kts | 198° |
| 2026-05-04 03:18 | 48.63970 | -123.34302 | 25 ft | 3 kts | 206° |
| 2026-05-04 03:19 | 48.63967 | -123.34302 | 37 ft | 6 kts | 324° |
| 2026-05-04 03:19 | 48.63956 | -123.34299 | 48 ft | 4 kts | 336° |
| 2026-05-04 03:19 | 48.63956 | -123.34305 | 71 ft | 0 kts | 338° |
| 2026-05-04 03:19 | 48.63956 | -123.34306 | 36 ft | 0 kts | 338° |
| 2026-05-04 03:20 | 48.63957 | -123.34307 | 38 ft | 1 kts | 341° |
| 2026-05-04 03:20 | 48.63975 | -123.34300 | 36 ft | 2 kts | 354° |
| 2026-05-04 03:20 | 48.63990 | -123.34302 | 95 ft | 6 kts | 13° |
| 2026-05-04 03:20 | 48.64010 | -123.34293 | 45 ft | 6 kts | 144° |
| 2026-05-04 03:21 | 48.63991 | -123.34304 | 34 ft | 1 kts | 122° |
| 2026-05-04 03:21 | 48.63991 | -123.34303 | 41 ft | 1 kts | 116° |
| 2026-05-04 03:21 | 48.63992 | -123.34303 | 42 ft | 0 kts | 113° |
| 2026-05-04 03:22 | 48.63991 | -123.34303 | 45 ft | 1 kts | 111° |
| 2026-05-04 03:23 | 48.63990 | -123.34303 | 45 ft | 1 kts | 112° |
| 2026-05-04 03:24 | 48.63991 | -123.34302 | 45 ft | 1 kts | 112° |
| 2026-05-04 03:26 | 48.63990 | -123.34302 | 45 ft | 0 kts | 112° |
| 2026-05-04 03:27 | 48.63991 | -123.34301 | 44 ft | 1 kts | 112° |
| 2026-05-04 03:28 | 48.63991 | -123.34300 | 44 ft | 0 kts | 112° |
| 2026-05-04 03:28 | 48.63991 | -123.34301 | 44 ft | 1 kts | 112° |
| 2026-05-04 03:29 | 48.63990 | -123.34301 | 45 ft | 1 kts | 112° |
| 2026-05-04 03:30 | 48.63990 | -123.34300 | 44 ft | 1 kts | 112° |
| 2026-05-04 03:31 | 48.63820 | -123.34401 | 154 ft | 76 kts | 231° |
| 2026-05-04 03:31 | 48.63200 | -123.35040 | 628 ft | 126 kts | 213° |
| 2026-05-04 03:31 | 48.62444 | -123.35930 | 633 ft | 147 kts | 219° |
| 2026-05-04 03:31 | 48.61632 | -123.36906 | 699 ft | 153 kts | 219° |
| 2026-05-04 03:32 | 48.60857 | -123.38022 | 763 ft | 155 kts | 232° |
| 2026-05-04 03:32 | 48.60186 | -123.39267 | 898 ft | 152 kts | 229° |
| 2026-05-04 03:32 | 48.59333 | -123.40226 | 854 ft | 154 kts | 219° |
| 2026-05-04 03:32 | 48.59058 | -123.41304 | 617 ft | 101 kts | 352° |
| 2026-05-04 03:33 | 48.59590 | -123.41224 | 399 ft | 73 kts | 88° |
| 2026-05-04 03:33 | 48.59476 | -123.40957 | 288 ft | 39 kts | 319° |
| 2026-05-04 03:33 | 48.59626 | -123.41066 | 235 ft | 10 kts | 89° |
| 2026-05-04 03:33 | 48.59531 | -123.40910 | 173 ft | 10 kts | 88° |
| 2026-05-04 03:34 | 48.59527 | -123.40869 | 132 ft | 0 kts | 94° |
| 2026-05-04 03:34 | 48.59527 | -123.40863 | 131 ft | 1 kts | 94° |
| 2026-05-04 03:34 | 48.59515 | -123.40806 | 175 ft | 36 kts | 109° |
| 2026-05-04 03:35 | 48.59307 | -123.40169 | 306 ft | 93 kts | 117° |
| 2026-05-04 03:35 | 48.58996 | -123.39132 | 452 ft | 127 kts | 108° |
| 2026-05-04 03:35 | 48.58677 | -123.37650 | 642 ft | 162 kts | 108° |
| 2026-05-04 03:35 | 48.58352 | -123.36161 | 1432 ft | 142 kts | 107° |
| 2026-05-04 03:36 | 48.58022 | -123.34717 | 1742 ft | 145 kts | 107° |
| 2026-05-04 03:36 | 48.57688 | -123.33271 | 1718 ft | 146 kts | 107° |
| 2026-05-04 03:36 | 48.57355 | -123.31826 | 1711 ft | 146 kts | 107° |
| 2026-05-04 03:36 | 48.57021 | -123.30379 | 1708 ft | 145 kts | 107° |
| 2026-05-04 03:37 | 48.56688 | -123.28934 | 1707 ft | 146 kts | 107° |
| 2026-05-04 03:37 | 48.56355 | -123.27488 | 1706 ft | 145 kts | 107° |
| 2026-05-04 03:37 | 48.56023 | -123.26042 | 1703 ft | 146 kts | 107° |
| 2026-05-04 03:37 | 48.55695 | -123.24611 | 1705 ft | 146 kts | 107° |
| 2026-05-04 03:38 | 48.55364 | -123.23161 | 1719 ft | 146 kts | 107° |
| 2026-05-04 03:38 | 48.55034 | -123.21714 | 1720 ft | 145 kts | 106° |
| 2026-05-04 03:38 | 48.54663 | -123.20371 | 1728 ft | 134 kts | 115° |
| 2026-05-04 03:38 | 48.54152 | -123.19087 | 1706 ft | 152 kts | 119° |
| 2026-05-04 03:39 | 48.53624 | -123.17764 | 1711 ft | 148 kts | 119° |
| 2026-05-04 03:39 | 48.53095 | -123.16440 | 1718 ft | 148 kts | 119° |
| 2026-05-04 03:39 | 48.52567 | -123.15120 | 1719 ft | 147 kts | 119° |
| 2026-05-04 03:39 | 48.52038 | -123.13794 | 1721 ft | 148 kts | 119° |
| 2026-05-04 03:40 | 48.51511 | -123.12464 | 1713 ft | 149 kts | 119° |
| 2026-05-04 03:40 | 48.50983 | -123.11133 | 1713 ft | 148 kts | 119° |
| 2026-05-04 03:40 | 48.50487 | -123.09883 | 1715 ft | 148 kts | 119° |
| 2026-05-04 03:41 | 48.50021 | -123.08708 | 1712 ft | 147 kts | 119° |
| 2026-05-04 03:41 | 48.49491 | -123.07392 | 1711 ft | 147 kts | 119° |
| 2026-05-04 03:41 | 48.48961 | -123.06069 | 1711 ft | 148 kts | 119° |
| 2026-05-04 03:41 | 48.48432 | -123.04751 | 1710 ft | 146 kts | 119° |
| 2026-05-04 03:42 | 48.47902 | -123.03431 | 1718 ft | 148 kts | 119° |
| 2026-05-04 03:42 | 48.47372 | -123.02102 | 1718 ft | 148 kts | 119° |
| 2026-05-04 03:42 | 48.46842 | -123.00776 | 1717 ft | 148 kts | 119° |
| 2026-05-04 03:42 | 48.46312 | -122.99448 | 1717 ft | 148 kts | 119° |
| 2026-05-04 03:43 | 48.45784 | -122.98122 | 1717 ft | 148 kts | 119° |
| 2026-05-04 03:43 | 48.45261 | -122.96810 | 1715 ft | 148 kts | 119° |
| 2026-05-04 03:43 | 48.44730 | -122.95483 | 1718 ft | 148 kts | 119° |
| 2026-05-04 03:43 | 48.44200 | -122.94155 | 1718 ft | 147 kts | 119° |
| 2026-05-04 03:44 | 48.43672 | -122.92830 | 1710 ft | 148 kts | 119° |
| 2026-05-04 03:44 | 48.43143 | -122.91504 | 1709 ft | 148 kts | 119° |
| 2026-05-04 03:44 | 48.42613 | -122.90177 | 1705 ft | 148 kts | 119° |
| 2026-05-04 03:44 | 48.42085 | -122.88849 | 1710 ft | 148 kts | 119° |
| 2026-05-04 03:45 | 48.41562 | -122.87522 | 1707 ft | 147 kts | 119° |
| 2026-05-04 03:45 | 48.41035 | -122.86196 | 1706 ft | 147 kts | 119° |
| 2026-05-04 03:45 | 48.40507 | -122.84870 | 1706 ft | 148 kts | 119° |
| 2026-05-04 03:45 | 48.39978 | -122.83542 | 1706 ft | 148 kts | 119° |
| 2026-05-04 03:46 | 48.39448 | -122.82214 | 1704 ft | 148 kts | 119° |
| 2026-05-04 03:46 | 48.38918 | -122.80888 | 1710 ft | 148 kts | 119° |
| 2026-05-04 03:46 | 48.38386 | -122.79564 | 1711 ft | 148 kts | 119° |
| 2026-05-04 03:46 | 48.37852 | -122.78252 | 1711 ft | 147 kts | 119° |
| 2026-05-04 03:47 | 48.37319 | -122.76939 | 1710 ft | 147 kts | 119° |
| 2026-05-04 03:47 | 48.36794 | -122.75643 | 1711 ft | 146 kts | 119° |
| 2026-05-04 03:47 | 48.36262 | -122.74332 | 1714 ft | 147 kts | 119° |
| 2026-05-04 03:47 | 48.35730 | -122.73021 | 1708 ft | 147 kts | 119° |
| 2026-05-04 03:48 | 48.35194 | -122.71709 | 1709 ft | 147 kts | 119° |
| 2026-05-04 03:48 | 48.34870 | -122.70335 | 1065 ft | 140 kts | 78° |
| 2026-05-04 03:48 | 48.35068 | -122.68978 | 610 ft | 127 kts | 80° |
| 2026-05-04 03:48 | 48.35128 | -122.67773 | 259 ft | 100 kts | 87° |
| 2026-05-04 03:49 | 48.35151 | -122.66871 | 119 ft | 76 kts | 87° |
| 2026-05-04 03:49 | 48.35176 | -122.66098 | 110 ft | 73 kts | 84° |
| 2026-05-04 03:49 | 48.35126 | -122.65471 | 122 ft | 48 kts | 149° |
| 2026-05-04 03:49 | 48.34790 | -122.65337 | 99 ft | 47 kts | 226° |
| 2026-05-04 03:50 | 48.34615 | -122.65810 | 71 ft | 50 kts | 250° |
| 2026-05-04 03:50 | 48.34519 | -122.66258 | 61 ft | 42 kts | 252° |
| 2026-05-04 03:50 | 48.34436 | -122.66583 | 53 ft | 20 kts | 206° |
| 2026-05-04 03:50 | 48.34340 | -122.66590 | 41 ft | 6 kts | 151° |
| 2026-05-04 03:51 | 48.34317 | -122.66582 | 34 ft | 1 kts | 140° |
| 2026-05-04 03:51 | 48.34316 | -122.66581 | 31 ft | 0 kts | 141° |